createdAt,value
2023-09-02T00:00:57.666Z,18.32
2023-09-02T00:03:25.192Z,18.32
2023-09-02T00:05:52.662Z,18.23
2023-09-02T00:08:20.110Z,18.23
2023-09-02T00:10:47.553Z,18.24
2023-09-02T00:13:15.599Z,18.21
2023-09-02T00:15:44.671Z,18.18
2023-09-02T00:18:12.251Z,18.26
2023-09-02T00:20:39.705Z,18.30
2023-09-02T00:23:07.189Z,18.23
2023-09-02T00:25:34.694Z,18.10
2023-09-02T00:28:02.208Z,17.98
2023-09-02T00:30:29.744Z,17.91
2023-09-02T00:32:58.553Z,18.00
2023-09-02T00:35:26.083Z,18.07
2023-09-02T00:37:53.553Z,18.04
2023-09-02T00:40:23.178Z,18.10
2023-09-02T00:42:53.878Z,18.04
2023-09-02T00:45:23.157Z,17.84
2023-09-02T00:47:51.145Z,17.89
2023-09-02T00:50:19.996Z,17.82
2023-09-02T00:52:47.950Z,18.00
2023-09-02T00:55:15.700Z,17.94
2023-09-02T00:57:44.243Z,17.91
2023-09-02T01:00:15.404Z,17.98
2023-09-02T01:02:45.373Z,17.91
2023-09-02T01:05:13.594Z,18.02
2023-09-02T01:07:44.153Z,17.92
2023-09-02T01:10:12.125Z,18.02
2023-09-02T01:12:39.733Z,18.11
2023-09-02T01:15:08.350Z,18.10
2023-09-02T01:17:35.835Z,17.97
2023-09-02T01:20:06.956Z,17.98
2023-09-02T01:23:00.031Z,17.86
2023-09-02T01:25:50.331Z,17.73
2023-09-02T01:28:20.768Z,17.85
2023-09-02T01:30:50.891Z,17.90
2023-09-02T01:33:21.612Z,18.03
2023-09-02T01:35:53.060Z,18.09
2023-09-02T01:38:23.192Z,17.95
2023-09-02T01:40:53.259Z,17.87
2023-09-02T01:43:25.063Z,17.80
2023-09-02T01:45:53.496Z,17.83
2023-09-02T01:48:21.584Z,17.79
2023-09-02T01:50:49.430Z,17.66
2023-09-02T01:53:17.577Z,17.75
2023-09-02T01:55:46.286Z,17.70
2023-09-02T01:58:14.113Z,17.84
2023-09-02T02:00:42.972Z,17.78
2023-09-02T02:03:19.834Z,17.79
2023-09-02T02:05:52.671Z,17.71
2023-09-02T02:08:27.568Z,17.75
2023-09-02T02:10:56.911Z,17.64
2023-09-02T02:13:24.447Z,17.72
2023-09-02T02:15:53.276Z,17.66
2023-09-02T02:18:20.737Z,17.59
2023-09-02T02:20:56.946Z,17.59
2023-09-02T02:23:24.627Z,17.57
2023-09-02T02:25:52.121Z,17.66
2023-09-02T02:28:19.917Z,17.59
2023-09-02T02:30:47.609Z,17.51
2023-09-02T02:33:16.623Z,17.46
2023-09-02T02:35:44.435Z,17.47
2023-09-02T02:38:12.142Z,17.49
2023-09-02T02:40:40.144Z,17.46
2023-09-02T02:43:07.632Z,17.52
2023-09-02T02:45:35.157Z,17.51
2023-09-02T02:48:03.099Z,17.44
2023-09-02T02:50:33.182Z,17.41
2023-09-02T02:53:00.616Z,17.31
2023-09-02T02:55:28.070Z,17.36
2023-09-02T02:57:57.797Z,17.32
2023-09-02T03:00:25.607Z,17.28
2023-09-02T03:02:53.249Z,17.19
2023-09-02T03:05:22.082Z,17.15
2023-09-02T03:07:50.916Z,17.22
2023-09-02T03:10:18.509Z,17.29
2023-09-02T03:12:45.968Z,17.25
2023-09-02T03:15:13.763Z,17.22
2023-09-02T03:17:41.248Z,17.20
2023-09-02T03:20:09.732Z,17.18
2023-09-02T03:22:37.240Z,17.21
2023-09-02T03:25:06.910Z,17.13
2023-09-02T03:27:34.359Z,17.12
2023-09-02T03:30:02.000Z,17.16
2023-09-02T03:32:29.527Z,16.94
2023-09-02T03:34:57.552Z,17.00
2023-09-02T03:37:25.314Z,17.04
2023-09-02T03:39:52.907Z,17.08
2023-09-02T03:42:21.656Z,17.03
2023-09-02T03:44:49.750Z,17.14
2023-09-02T03:47:17.282Z,17.20
2023-09-02T03:49:44.811Z,17.21
2023-09-02T03:52:12.298Z,17.10
2023-09-02T03:54:40.007Z,17.14
2023-09-02T03:57:07.540Z,17.16
2023-09-02T03:59:36.303Z,17.05
2023-09-02T04:02:03.884Z,17.17
2023-09-02T04:04:31.308Z,17.14
2023-09-02T04:06:58.781Z,16.97
2023-09-02T04:09:26.490Z,17.10
2023-09-02T04:11:54.006Z,17.15
2023-09-02T04:14:21.624Z,17.18
2023-09-02T04:16:50.495Z,17.23
2023-09-02T04:19:18.902Z,17.09
2023-09-02T04:21:46.440Z,17.08
2023-09-02T04:24:13.963Z,17.02
2023-09-02T04:26:41.433Z,16.94
2023-09-02T04:29:08.948Z,17.05
2023-09-02T04:31:36.420Z,16.95
2023-09-02T04:34:05.190Z,17.02
2023-09-02T04:36:32.629Z,17.08
2023-09-02T04:39:00.084Z,17.11
2023-09-02T04:41:27.566Z,17.06
2023-09-02T04:43:55.020Z,17.09
2023-09-02T04:46:22.572Z,17.06
2023-09-02T04:48:50.031Z,17.12
2023-09-02T04:51:18.823Z,17.19
2023-09-02T04:53:46.736Z,17.42
2023-09-02T04:56:14.255Z,17.46
2023-09-02T04:58:41.805Z,17.29
2023-09-02T05:01:10.649Z,17.29
2023-09-02T05:03:38.129Z,17.31
2023-09-02T05:06:06.833Z,17.49
2023-09-02T05:08:36.030Z,17.42
2023-09-02T05:11:04.720Z,17.37
2023-09-02T05:13:32.508Z,17.37
2023-09-02T05:15:59.993Z,17.49
2023-09-02T05:18:27.494Z,17.66
2023-09-02T05:20:58.267Z,17.76
2023-09-02T05:23:25.899Z,17.76
2023-09-02T05:25:58.460Z,17.95
2023-09-02T05:28:26.788Z,17.98
2023-09-02T05:30:54.249Z,17.95
2023-09-02T05:33:21.926Z,18.12
2023-09-02T05:35:49.531Z,18.27
2023-09-02T05:38:17.061Z,18.08
2023-09-02T05:40:44.890Z,18.07
2023-09-02T05:43:13.898Z,18.05
2023-09-02T05:45:41.406Z,18.07
2023-09-02T05:48:09.005Z,18.06
2023-09-02T05:50:36.637Z,18.19
2023-09-02T05:53:04.368Z,18.39
2023-09-02T05:55:32.532Z,18.45
2023-09-02T05:58:00.081Z,18.49
2023-09-02T06:00:28.906Z,18.62
2023-09-02T06:02:56.387Z,18.79
2023-09-02T06:05:23.862Z,18.90
2023-09-02T06:07:51.328Z,18.97
2023-09-02T06:10:18.991Z,18.98
2023-09-02T06:12:46.484Z,19.06
2023-09-02T06:15:13.912Z,19.12
2023-09-02T06:17:42.706Z,19.18
2023-09-02T06:20:11.006Z,19.31
2023-09-02T06:22:38.490Z,19.32
2023-09-02T06:25:06.814Z,19.38
2023-09-02T06:27:34.365Z,19.43
2023-09-02T06:30:01.808Z,19.47
2023-09-02T06:32:29.309Z,19.42
2023-09-02T06:34:59.025Z,19.37
2023-09-02T06:37:27.609Z,19.48
2023-09-02T06:39:55.420Z,19.46
2023-09-02T06:42:24.518Z,19.58
2023-09-02T06:44:54.990Z,19.61
2023-09-02T06:47:22.423Z,19.59
2023-09-02T06:49:49.904Z,19.65
2023-09-02T06:52:18.653Z,19.70
2023-09-02T06:54:49.084Z,19.75
2023-09-02T06:57:16.585Z,19.86
2023-09-02T06:59:44.085Z,19.59
2023-09-02T07:02:11.522Z,19.81
2023-09-02T07:04:39.013Z,19.81
2023-09-02T07:07:06.518Z,19.90
2023-09-02T07:09:35.311Z,19.95
2023-09-02T07:12:02.836Z,19.99
2023-09-02T07:14:30.289Z,20.13
2023-09-02T07:16:57.891Z,20.21
2023-09-02T07:19:25.974Z,20.14
2023-09-02T07:21:53.420Z,20.12
2023-09-02T07:24:21.065Z,20.34
2023-09-02T07:26:49.811Z,20.31
2023-09-02T07:29:17.253Z,20.30
2023-09-02T07:31:44.709Z,20.24
2023-09-02T07:34:12.528Z,20.43
2023-09-02T07:36:39.974Z,20.50
2023-09-02T07:39:07.408Z,20.56
2023-09-02T07:41:34.878Z,20.59
2023-09-02T07:44:03.645Z,20.64
2023-09-02T07:46:31.110Z,20.43
2023-09-02T07:48:58.567Z,20.65
2023-09-02T07:51:26.507Z,20.82
2023-09-02T07:53:54.046Z,20.47
2023-09-02T07:56:23.594Z,20.84
2023-09-02T07:58:52.210Z,21.02
2023-09-02T08:01:22.226Z,21.00
2023-09-02T08:03:50.926Z,20.68
2023-09-02T08:06:18.396Z,21.06
2023-09-02T08:08:45.854Z,21.03
2023-09-02T08:11:17.670Z,20.98
2023-09-02T08:13:45.508Z,21.06
2023-09-02T08:16:13.065Z,21.12
2023-09-02T08:18:41.829Z,20.99
2023-09-02T08:21:10.451Z,21.03
2023-09-02T08:23:39.729Z,21.12
2023-09-02T08:26:12.973Z,21.06
2023-09-02T08:28:40.542Z,20.92
2023-09-02T08:31:08.013Z,21.08
2023-09-02T08:33:37.044Z,21.22
2023-09-02T08:36:06.403Z,21.50
2023-09-02T08:38:35.053Z,21.14
2023-09-02T08:41:05.896Z,21.22
2023-09-02T08:43:34.061Z,21.60
2023-09-02T08:46:02.462Z,21.43
2023-09-02T08:48:34.306Z,21.56
2023-09-02T08:51:02.476Z,21.78
2023-09-02T08:53:33.791Z,21.59
2023-09-02T08:56:02.658Z,21.84
2023-09-02T08:58:31.457Z,21.89
2023-09-02T09:01:00.812Z,21.34
2023-09-02T09:03:30.451Z,21.53
2023-09-02T09:05:59.739Z,21.67
2023-09-02T09:08:29.390Z,21.68
2023-09-02T09:10:58.774Z,22.15
2023-09-02T09:13:27.514Z,22.08
2023-09-02T09:15:58.207Z,21.82
2023-09-02T09:18:27.143Z,21.63
2023-09-02T09:20:55.667Z,21.94
2023-09-02T09:23:23.147Z,21.99
2023-09-02T09:25:53.540Z,21.46
2023-09-02T09:28:22.341Z,22.05
2023-09-02T09:30:50.312Z,22.15
2023-09-02T09:33:20.865Z,22.23
2023-09-02T09:35:49.630Z,21.92
2023-09-02T09:38:18.265Z,22.08
2023-09-02T09:40:45.902Z,22.15
2023-09-02T09:43:19.184Z,22.09
2023-09-02T09:45:52.881Z,21.78
2023-09-02T09:48:20.613Z,22.35
2023-09-02T09:50:48.176Z,22.44
2023-09-02T09:53:15.664Z,22.61
2023-09-02T09:55:43.166Z,22.41
2023-09-02T09:58:10.682Z,22.22
2023-09-02T10:00:38.378Z,21.48
2023-09-02T10:03:07.480Z,22.55
2023-09-02T10:05:36.126Z,21.71
2023-09-02T10:08:05.422Z,22.46
2023-09-02T10:10:34.457Z,22.44
2023-09-02T10:13:02.565Z,21.63
2023-09-02T10:18:00.518Z,22.31
2023-09-02T10:20:30.867Z,21.97
2023-09-02T10:23:05.632Z,21.60
2023-09-02T10:25:39.187Z,22.18
2023-09-02T10:28:12.154Z,22.11
2023-09-02T10:30:44.865Z,21.86
2023-09-02T10:33:17.473Z,22.29
2023-09-02T10:35:51.982Z,22.31
2023-09-02T10:38:22.888Z,22.30
2023-09-02T10:40:58.239Z,22.22
2023-09-02T10:43:26.250Z,22.02
2023-09-02T10:45:54.143Z,22.16
2023-09-02T10:48:21.803Z,22.68
2023-09-02T10:50:51.001Z,23.04
2023-09-02T10:53:18.560Z,23.11
2023-09-02T10:55:59.901Z,22.77
2023-09-02T10:58:27.948Z,22.59
2023-09-02T11:00:55.660Z,22.95
2023-09-02T11:03:43.652Z,22.47
2023-09-02T11:06:13.836Z,22.19
2023-09-02T11:08:42.466Z,22.35
2023-09-02T11:11:10.007Z,22.40
2023-09-02T11:14:22.271Z,23.09
2023-09-02T11:17:27.358Z,23.04
2023-09-02T11:19:59.269Z,22.86
2023-09-02T11:22:54.838Z,23.33
2023-09-02T11:25:38.181Z,22.67
2023-09-02T11:28:07.012Z,22.52
2023-09-02T11:30:36.381Z,22.82
2023-09-02T11:33:04.875Z,22.78
2023-09-02T11:35:34.496Z,22.75
2023-09-02T11:38:04.754Z,22.97
2023-09-02T11:40:32.305Z,23.16
2023-09-02T11:43:01.392Z,23.33
2023-09-02T11:45:32.270Z,23.65
2023-09-02T11:48:00.573Z,23.16
2023-09-02T11:50:28.198Z,22.59
2023-09-02T11:52:57.584Z,22.70
2023-09-02T11:55:27.533Z,23.38
2023-09-02T11:57:55.222Z,23.08
2023-09-02T12:00:24.390Z,23.07
2023-09-02T12:02:54.641Z,23.53
2023-09-02T12:05:22.214Z,23.38
2023-09-02T12:07:52.131Z,23.36
2023-09-02T12:10:21.029Z,23.41
2023-09-02T12:12:50.760Z,23.22
2023-09-02T12:15:19.754Z,23.30
2023-09-02T12:20:18.257Z,23.44
2023-09-02T12:22:46.310Z,23.14
2023-09-02T12:25:15.052Z,22.54
2023-09-02T12:27:44.072Z,22.66
2023-09-02T12:30:14.311Z,22.29
2023-09-02T12:32:41.936Z,22.51
2023-09-02T12:35:10.669Z,22.71
2023-09-02T12:37:39.309Z,23.10
2023-09-02T12:40:11.907Z,23.02
2023-09-02T12:42:39.459Z,23.43
2023-09-02T12:45:09.390Z,23.20
2023-09-02T12:47:40.013Z,23.09
2023-09-02T12:50:08.391Z,22.92
2023-09-02T12:52:36.694Z,22.60
2023-09-02T12:55:06.124Z,22.52
2023-09-02T12:57:35.405Z,22.36
2023-09-02T13:00:06.064Z,22.43
2023-09-02T13:02:33.791Z,22.54
2023-09-02T13:05:03.275Z,22.18
2023-09-02T13:07:30.726Z,22.59
2023-09-02T13:09:58.216Z,22.57
2023-09-02T13:12:28.182Z,22.53
2023-09-02T13:14:55.736Z,22.60
2023-09-02T13:17:24.683Z,22.79
2023-09-02T13:19:52.764Z,22.51
2023-09-02T13:22:21.670Z,23.19
2023-09-02T13:24:49.191Z,23.02
2023-09-02T13:27:18.652Z,23.19
2023-09-02T13:29:46.583Z,22.77
2023-09-02T13:32:19.441Z,23.17
2023-09-02T13:34:47.267Z,23.20
2023-09-02T13:37:25.863Z,23.42
2023-09-02T13:39:58.659Z,23.50
2023-09-02T13:42:26.509Z,23.36
2023-09-02T13:45:11.526Z,23.43
2023-09-02T13:47:45.641Z,23.58
2023-09-02T13:50:13.134Z,23.30
2023-09-02T13:52:42.246Z,23.48
2023-09-02T13:55:10.466Z,23.44
2023-09-02T13:57:38.355Z,23.50
2023-09-02T14:00:14.284Z,23.55
2023-09-02T14:02:42.237Z,22.53
2023-09-02T14:05:15.099Z,23.11
2023-09-02T14:07:45.254Z,23.09
2023-09-02T14:10:13.882Z,22.68
2023-09-02T14:12:41.552Z,23.10
2023-09-02T14:15:09.370Z,23.18
2023-09-02T14:17:36.927Z,23.31
2023-09-02T14:20:05.040Z,23.28
2023-09-02T14:22:32.479Z,23.23
2023-09-02T14:25:01.249Z,23.49
2023-09-02T14:27:28.760Z,23.60
2023-09-02T14:29:56.308Z,23.45
2023-09-02T14:32:24.011Z,23.73
2023-09-02T14:34:51.577Z,23.81
2023-09-02T14:37:20.633Z,23.75
2023-09-02T14:39:48.350Z,23.66
2023-09-02T14:42:17.164Z,23.71
2023-09-02T14:44:44.624Z,23.49
2023-09-02T14:47:12.846Z,23.88
2023-09-02T14:49:41.082Z,23.63
2023-09-02T14:52:08.651Z,23.39
2023-09-02T14:54:45.438Z,23.59
2023-09-02T14:57:15.516Z,23.70
2023-09-02T14:59:47.051Z,23.48
2023-09-02T15:02:21.041Z,23.78
2023-09-02T15:04:48.846Z,23.15
2023-09-02T15:07:17.375Z,23.57
2023-09-02T15:09:44.960Z,23.51
2023-09-02T15:12:16.110Z,23.42
2023-09-02T15:14:50.832Z,23.81
2023-09-02T15:17:19.594Z,23.43
2023-09-02T15:19:50.461Z,23.91
2023-09-02T15:22:20.202Z,23.85
2023-09-02T15:24:48.015Z,23.70
2023-09-02T15:27:21.588Z,23.38
2023-09-02T15:29:50.764Z,23.47
2023-09-02T15:32:18.258Z,23.01
2023-09-02T15:34:47.102Z,23.44
2023-09-02T15:37:18.342Z,23.65
2023-09-02T15:39:47.405Z,23.68
2023-09-02T15:42:14.904Z,23.36
2023-09-02T15:44:46.778Z,23.63
2023-09-02T15:47:15.757Z,23.43
2023-09-02T15:49:43.184Z,23.65
2023-09-02T15:52:10.665Z,23.44
2023-09-02T15:54:38.820Z,23.30
2023-09-02T15:57:07.395Z,23.72
2023-09-02T15:59:34.985Z,23.48
2023-09-02T16:02:02.455Z,23.37
2023-09-02T16:04:31.561Z,23.58
2023-09-02T16:06:59.484Z,23.60
2023-09-02T16:09:27.038Z,23.61
2023-09-02T16:11:54.722Z,23.42
2023-09-02T16:14:22.200Z,23.26
2023-09-02T16:16:49.660Z,23.17
2023-09-02T16:19:17.073Z,23.30
2023-09-02T16:21:45.892Z,23.45
2023-09-02T16:24:13.330Z,23.47
2023-09-02T16:26:40.910Z,23.05
2023-09-02T16:29:08.413Z,23.20
2023-09-02T16:31:35.926Z,23.33
2023-09-02T16:34:04.561Z,23.32
2023-09-02T16:36:33.344Z,23.24
2023-09-02T16:39:02.257Z,23.28
2023-09-02T16:41:30.390Z,23.31
2023-09-02T16:44:05.544Z,23.21
2023-09-02T16:46:33.559Z,22.97
2023-09-02T16:49:01.100Z,23.25
2023-09-02T16:51:28.580Z,23.23
2023-09-02T16:53:56.113Z,23.23
2023-09-02T16:56:25.052Z,23.15
2023-09-02T16:58:54.106Z,23.09
2023-09-02T17:01:24.090Z,23.02
2023-09-02T17:03:53.770Z,23.10
2023-09-02T17:06:22.780Z,22.86
2023-09-02T17:08:50.286Z,23.02
2023-09-02T17:11:17.877Z,22.84
2023-09-02T17:13:47.038Z,23.00
2023-09-02T17:16:14.716Z,22.94
2023-09-02T17:18:42.499Z,22.84
2023-09-02T17:21:14.098Z,22.50
2023-09-02T17:23:41.630Z,22.89
2023-09-02T17:26:09.093Z,22.77
2023-09-02T17:28:36.535Z,22.93
2023-09-02T17:31:09.296Z,22.80
2023-09-02T17:33:40.648Z,22.77
2023-09-02T17:36:08.960Z,22.86
2023-09-02T17:38:36.400Z,22.89
2023-09-02T17:41:04.210Z,22.87
2023-09-02T17:43:31.676Z,22.80
2023-09-02T17:45:59.188Z,22.75
2023-09-02T17:48:28.040Z,22.70
2023-09-02T17:50:55.565Z,22.66
2023-09-02T17:53:23.028Z,22.61
2023-09-02T17:55:50.574Z,22.48
2023-09-02T17:58:18.393Z,22.44
2023-09-02T18:00:46.032Z,22.34
2023-09-02T18:03:13.592Z,22.44
2023-09-02T18:05:42.579Z,22.42
2023-09-02T18:08:10.010Z,22.30
2023-09-02T18:10:37.478Z,22.14
2023-09-02T18:13:07.104Z,22.14
2023-09-02T18:15:34.901Z,22.24
2023-09-02T18:18:03.047Z,22.15
2023-09-02T18:20:31.174Z,22.10
2023-09-02T18:23:00.014Z,22.18
2023-09-02T18:25:27.481Z,22.21
2023-09-02T18:27:54.958Z,22.08
2023-09-02T18:30:22.415Z,22.07
2023-09-02T18:32:49.903Z,22.04
2023-09-02T18:35:17.577Z,22.01
2023-09-02T18:37:45.332Z,22.01
2023-09-02T18:40:15.912Z,21.90
2023-09-02T18:42:43.393Z,21.91
2023-09-02T18:45:13.948Z,21.80
2023-09-02T18:47:41.636Z,21.81
2023-09-02T18:50:09.560Z,21.78
2023-09-02T18:52:37.093Z,21.69
2023-09-02T18:55:05.079Z,21.61
2023-09-02T18:57:33.881Z,21.56
2023-09-02T19:00:01.362Z,21.53
2023-09-02T19:02:29.072Z,21.53
2023-09-02T19:04:56.703Z,21.43
2023-09-02T19:07:24.182Z,21.29
2023-09-02T19:09:51.706Z,21.34
2023-09-02T19:12:19.180Z,21.32
2023-09-02T19:14:48.026Z,21.15
2023-09-02T19:17:15.529Z,21.07
2023-09-02T19:19:44.942Z,21.05
2023-09-02T19:22:12.485Z,21.03
2023-09-02T19:24:40.014Z,20.97
2023-09-02T19:27:07.625Z,20.97
2023-09-02T19:29:35.315Z,20.95
2023-09-02T19:32:04.288Z,20.98
2023-09-02T19:34:33.879Z,20.93
2023-09-02T19:37:04.863Z,20.90
2023-09-02T19:39:34.530Z,20.77
2023-09-02T19:42:02.036Z,20.82
2023-09-02T19:44:33.909Z,20.66
2023-09-02T19:47:01.734Z,20.81
2023-09-02T19:49:30.640Z,20.83
2023-09-02T19:51:58.197Z,20.70
2023-09-02T19:54:25.893Z,20.71
2023-09-02T19:56:53.644Z,20.70
2023-09-02T19:59:21.189Z,20.67
2023-09-02T20:01:48.985Z,20.54
2023-09-02T20:04:16.535Z,20.60
2023-09-02T20:06:45.385Z,20.59
2023-09-02T20:09:12.837Z,20.49
2023-09-02T20:11:40.450Z,20.45
2023-09-02T20:14:08.016Z,20.35
2023-09-02T20:16:36.250Z,20.33
2023-09-02T20:19:03.865Z,20.36
2023-09-02T20:21:31.729Z,20.37
2023-09-02T20:24:00.667Z,20.34
2023-09-02T20:26:28.398Z,20.24
2023-09-02T20:28:55.900Z,20.19
2023-09-02T20:31:23.698Z,20.46
2023-09-02T20:33:52.596Z,20.28
2023-09-02T20:36:20.480Z,20.27
2023-09-02T20:38:49.922Z,20.20
2023-09-02T20:41:20.152Z,20.18
2023-09-02T20:43:47.779Z,20.09
2023-09-02T20:46:16.197Z,19.97
2023-09-02T20:48:44.221Z,20.00
2023-09-02T20:51:12.326Z,20.01
2023-09-02T20:53:41.588Z,19.90
2023-09-02T20:56:10.367Z,19.97
2023-09-02T20:58:39.177Z,19.92
2023-09-02T21:01:07.261Z,19.90
2023-09-02T21:03:34.978Z,19.91
2023-09-02T21:06:02.997Z,19.85
2023-09-02T21:08:32.130Z,19.87
2023-09-02T21:11:08.862Z,19.78
2023-09-02T21:13:36.603Z,19.77
2023-09-02T21:16:10.740Z,19.73
2023-09-02T21:18:38.268Z,19.71
2023-09-02T21:21:05.774Z,19.80
2023-09-02T21:23:33.359Z,19.70
2023-09-02T21:26:08.262Z,19.66
2023-09-02T21:28:38.072Z,19.57
2023-09-02T21:31:07.823Z,19.63
2023-09-02T21:33:36.012Z,19.63
2023-09-02T21:36:04.169Z,19.62
2023-09-02T21:38:31.756Z,19.61
2023-09-02T21:41:04.362Z,19.64
2023-09-02T21:43:32.319Z,19.52
2023-09-02T21:46:03.657Z,19.45
2023-09-02T21:48:32.529Z,19.57
2023-09-02T21:51:01.338Z,19.54
2023-09-02T21:53:29.487Z,19.58
2023-09-02T21:55:57.543Z,19.54
2023-09-02T21:58:26.956Z,19.42
2023-09-02T22:01:01.604Z,19.47
2023-09-02T22:03:29.315Z,19.51
2023-09-02T22:06:02.787Z,19.55
2023-09-02T22:08:30.571Z,19.43
2023-09-02T22:10:58.315Z,19.47
2023-09-02T22:13:26.514Z,19.56
2023-09-02T22:15:54.499Z,19.64
2023-09-02T22:18:25.525Z,19.67
2023-09-02T22:20:54.354Z,19.53
2023-09-02T22:23:23.796Z,19.40
2023-09-02T22:25:51.713Z,19.51
2023-09-02T22:28:19.183Z,19.61
2023-09-02T22:30:46.702Z,19.84
2023-09-02T22:33:14.376Z,19.71
2023-09-02T22:35:41.939Z,19.78
2023-09-02T22:38:10.498Z,19.89
2023-09-02T22:40:39.460Z,19.95
2023-09-02T22:43:06.901Z,19.92
2023-09-02T22:45:36.825Z,19.90
2023-09-02T22:48:05.309Z,20.02
2023-09-02T22:50:33.473Z,20.10
2023-09-02T22:53:00.995Z,20.13
2023-09-02T22:55:33.032Z,20.18
2023-09-02T22:58:01.969Z,20.15
2023-09-02T23:00:30.072Z,20.13
2023-09-02T23:02:57.859Z,20.13
2023-09-02T23:05:26.617Z,20.16
2023-09-02T23:07:55.466Z,20.15
2023-09-02T23:10:23.453Z,20.18
2023-09-02T23:12:51.560Z,20.17
2023-09-02T23:15:22.083Z,20.16
2023-09-02T23:17:50.200Z,20.14
2023-09-02T23:20:17.999Z,20.11
2023-09-02T23:22:45.799Z,20.15
2023-09-02T23:25:14.242Z,20.03
2023-09-02T23:27:42.142Z,20.04
2023-09-02T23:30:10.721Z,20.04
2023-09-02T23:32:39.958Z,20.30
2023-09-02T23:35:08.269Z,20.34
2023-09-02T23:37:35.891Z,20.12
2023-09-02T23:40:03.510Z,19.98
2023-09-02T23:42:30.986Z,20.05
2023-09-02T23:44:58.547Z,20.10
2023-09-02T23:47:26.077Z,20.18
2023-09-02T23:49:54.905Z,20.12
2023-09-02T23:52:22.403Z,20.13
2023-09-02T23:54:49.900Z,20.12
2023-09-02T23:57:17.369Z,20.03
2023-09-02T23:59:44.813Z,20.03
